createdAt,value
2018-08-28T00:00:35.547Z,23.30
2018-08-28T00:01:39.595Z,23.30
2018-08-28T00:02:43.700Z,23.30
2018-08-28T00:03:47.742Z,23.30
2018-08-28T00:04:51.913Z,23.30
2018-08-28T00:05:55.997Z,23.30
2018-08-28T00:07:00.081Z,23.30
2018-08-28T00:08:04.145Z,23.30
2018-08-28T00:09:08.186Z,23.30
2018-08-28T00:10:12.257Z,23.20
2018-08-28T00:11:16.495Z,23.20
2018-08-28T00:12:20.552Z,23.20
2018-08-28T00:13:24.600Z,23.20
2018-08-28T00:14:28.713Z,23.20
2018-08-28T00:15:33.324Z,23.20
2018-08-28T00:16:37.355Z,23.20
2018-08-28T00:17:41.448Z,23.20
2018-08-28T00:18:45.481Z,23.20
2018-08-28T00:19:49.499Z,23.20
2018-08-28T00:20:53.742Z,23.20
2018-08-28T00:21:57.806Z,23.20
2018-08-28T00:23:01.880Z,23.20
2018-08-28T00:24:05.928Z,23.20
2018-08-28T00:25:09.954Z,23.20
2018-08-28T00:26:14.030Z,23.20
2018-08-28T00:27:18.158Z,23.20
2018-08-28T00:28:22.176Z,23.20
2018-08-28T00:29:26.251Z,23.20
2018-08-28T00:30:30.313Z,23.20
2018-08-28T00:31:34.368Z,23.20
2018-08-28T00:32:38.425Z,23.20
2018-08-28T00:33:42.511Z,23.20
2018-08-28T00:34:46.580Z,23.20
2018-08-28T00:35:50.675Z,23.20
2018-08-28T00:36:54.713Z,23.10
2018-08-28T00:37:58.767Z,23.10
2018-08-28T00:39:02.908Z,23.10
2018-08-28T00:40:07.084Z,23.10
2018-08-28T00:41:11.409Z,23.10
2018-08-28T00:42:15.421Z,23.10
2018-08-28T00:43:19.440Z,23.10
2018-08-28T00:44:23.480Z,23.10
2018-08-28T00:45:27.544Z,23.10
2018-08-28T00:46:31.823Z,23.10
2018-08-28T00:47:35.971Z,23.10
2018-08-28T00:48:39.944Z,23.10
2018-08-28T00:49:44.029Z,23.10
2018-08-28T00:50:48.174Z,23.10
2018-08-28T00:51:52.249Z,23.10
2018-08-28T00:52:56.336Z,23.10
2018-08-28T00:54:00.435Z,23.10
2018-08-28T00:55:04.521Z,23.00
2018-08-28T00:56:08.852Z,23.00
2018-08-28T00:57:12.919Z,23.00
2018-08-28T00:58:16.983Z,23.00
2018-08-28T00:59:21.479Z,23.00
2018-08-28T01:00:25.616Z,23.00
2018-08-28T01:01:29.682Z,23.00
2018-08-28T01:02:33.994Z,22.90
2018-08-28T01:03:38.043Z,22.90
2018-08-28T01:04:42.059Z,22.90
2018-08-28T01:05:46.502Z,22.90
2018-08-28T01:06:50.768Z,22.90
2018-08-28T01:07:54.814Z,22.90
2018-08-28T01:08:59.015Z,22.90
2018-08-28T01:10:03.081Z,22.80
2018-08-28T01:11:07.472Z,22.80
2018-08-28T01:12:11.613Z,22.80
2018-08-28T01:13:15.666Z,22.80
2018-08-28T01:14:19.690Z,22.80
2018-08-28T01:15:23.878Z,22.80
2018-08-28T01:16:27.956Z,22.80
2018-08-28T01:17:31.983Z,22.80
2018-08-28T01:18:36.488Z,22.80
2018-08-28T01:19:40.602Z,22.70
2018-08-28T01:20:44.624Z,22.70
2018-08-28T01:21:49.001Z,22.70
2018-08-28T01:22:53.117Z,22.70
2018-08-28T01:23:57.507Z,22.70
2018-08-28T01:25:01.548Z,22.70
2018-08-28T01:26:06.424Z,22.70
2018-08-28T01:27:10.797Z,22.70
2018-08-28T01:28:14.829Z,22.70
2018-08-28T01:29:18.881Z,22.70
2018-08-28T01:30:28.378Z,22.70
2018-08-28T01:31:32.770Z,22.60
2018-08-28T01:34:09.838Z,22.60
2018-08-28T01:35:14.006Z,22.60
2018-08-28T01:36:18.550Z,22.60
2018-08-28T01:37:22.623Z,22.60
2018-08-28T01:38:26.879Z,22.60
2018-08-28T01:39:30.926Z,22.60
2018-08-28T01:40:35.142Z,22.50
2018-08-28T01:41:39.180Z,22.50
2018-08-28T01:42:43.216Z,22.50
2018-08-28T01:43:47.274Z,22.50
2018-08-28T01:44:51.428Z,22.50
2018-08-28T01:45:55.458Z,22.50
2018-08-28T01:46:59.718Z,22.50
2018-08-28T01:48:03.784Z,22.40
2018-08-28T01:49:07.865Z,22.40
2018-08-28T01:50:11.994Z,22.40
2018-08-28T01:51:16.068Z,22.40
2018-08-28T01:52:20.631Z,22.40
2018-08-28T01:53:24.780Z,22.40
2018-08-28T01:54:28.835Z,22.40
2018-08-28T01:55:33.109Z,22.40
2018-08-28T01:56:37.188Z,22.40
2018-08-28T01:57:41.232Z,22.40
2018-08-28T01:58:45.263Z,22.40
2018-08-28T01:59:49.300Z,22.40
2018-08-28T02:00:53.353Z,22.40
2018-08-28T02:01:57.401Z,22.40
2018-08-28T02:03:01.562Z,22.40
2018-08-28T02:04:05.776Z,22.40
2018-08-28T02:05:09.919Z,22.40
2018-08-28T02:06:13.959Z,22.40
2018-08-28T02:07:18.096Z,22.40
2018-08-28T02:08:22.098Z,22.40
2018-08-28T02:09:26.137Z,22.40
2018-08-28T02:10:30.694Z,22.30
2018-08-28T02:11:34.729Z,22.30
2018-08-28T02:12:38.829Z,22.30
2018-08-28T02:13:42.929Z,22.30
2018-08-28T02:14:46.972Z,22.30
2018-08-28T02:15:51.046Z,22.30
2018-08-28T02:16:55.094Z,22.30
2018-08-28T02:17:59.214Z,22.30
2018-08-28T02:19:03.477Z,22.30
2018-08-28T02:20:08.362Z,22.30
2018-08-28T02:21:12.401Z,22.30
2018-08-28T02:22:16.752Z,22.30
2018-08-28T02:23:20.811Z,22.20
2018-08-28T02:24:24.844Z,22.20
2018-08-28T02:25:29.188Z,22.20
2018-08-28T02:26:33.269Z,22.20
2018-08-28T02:27:37.460Z,22.20
2018-08-28T02:28:41.837Z,22.20
2018-08-28T02:29:49.077Z,22.20
2018-08-28T02:30:59.529Z,22.20
2018-08-28T02:32:03.541Z,22.10
2018-08-28T02:33:07.592Z,22.10
2018-08-28T02:34:11.827Z,22.10
2018-08-28T02:35:15.820Z,22.10
2018-08-28T02:36:19.843Z,22.10
2018-08-28T02:37:23.891Z,22.10
2018-08-28T02:38:28.011Z,22.10
2018-08-28T02:39:32.057Z,22.10
2018-08-28T02:40:36.202Z,22.00
2018-08-28T02:41:40.810Z,22.00
2018-08-28T02:42:44.860Z,22.00
2018-08-28T02:43:49.044Z,22.00
2018-08-28T02:44:53.154Z,22.00
2018-08-28T02:45:57.206Z,22.00
2018-08-28T02:47:01.366Z,22.00
2018-08-28T02:48:05.446Z,22.00
2018-08-28T02:49:09.502Z,21.90
2018-08-28T02:50:14.151Z,21.90
2018-08-28T02:51:18.336Z,21.90
2018-08-28T02:52:22.375Z,21.90
2018-08-28T02:53:26.408Z,21.90
2018-08-28T02:54:31.955Z,21.90
2018-08-28T02:55:36.010Z,21.90
2018-08-28T02:56:40.236Z,21.80
2018-08-28T02:57:44.277Z,21.80
2018-08-28T02:58:48.321Z,21.80
2018-08-28T02:59:52.344Z,21.80
2018-08-28T03:00:56.405Z,21.80
2018-08-28T03:02:00.459Z,21.80
2018-08-28T03:03:04.626Z,21.80
2018-08-28T03:04:08.599Z,21.70
2018-08-28T03:05:12.612Z,21.80
2018-08-28T03:06:16.754Z,21.70
2018-08-28T03:07:20.800Z,21.70
2018-08-28T03:08:25.060Z,21.70
2018-08-28T03:09:29.370Z,21.70
2018-08-28T03:10:33.417Z,21.70
2018-08-28T03:11:37.690Z,21.70
2018-08-28T03:12:41.711Z,21.60
2018-08-28T03:13:45.818Z,21.60
2018-08-28T03:14:50.326Z,21.60
2018-08-28T03:15:54.479Z,21.60
2018-08-28T03:16:58.502Z,21.60
2018-08-28T03:18:02.872Z,21.50
2018-08-28T03:19:06.979Z,21.50
2018-08-28T03:20:11.113Z,21.50
2018-08-28T03:21:15.314Z,21.50
2018-08-28T03:22:19.344Z,21.50
2018-08-28T03:23:23.652Z,21.50
2018-08-28T03:24:27.721Z,21.40
2018-08-28T03:25:31.769Z,21.40
2018-08-28T03:26:35.799Z,21.40
2018-08-28T03:27:39.868Z,21.30
2018-08-28T03:28:43.976Z,21.30
2018-08-28T03:29:48.018Z,21.30
2018-08-28T03:30:52.063Z,21.30
2018-08-28T03:31:56.481Z,21.30
2018-08-28T03:33:00.640Z,21.30
2018-08-28T03:34:04.691Z,21.30
2018-08-28T03:35:08.965Z,21.30
2018-08-28T03:36:12.983Z,21.30
2018-08-28T03:37:17.043Z,21.30
2018-08-28T03:38:21.199Z,21.20
2018-08-28T03:39:25.365Z,21.20
2018-08-28T03:40:32.394Z,21.20
2018-08-28T03:41:36.518Z,21.20
2018-08-28T03:42:40.871Z,21.20
2018-08-28T03:43:44.940Z,21.20
2018-08-28T03:44:49.036Z,21.20
2018-08-28T03:45:53.075Z,21.20
2018-08-28T03:46:57.124Z,21.10
2018-08-28T03:48:01.148Z,21.10
2018-08-28T03:49:05.530Z,21.10
2018-08-28T03:50:09.380Z,21.10
2018-08-28T03:51:13.572Z,21.10
2018-08-28T03:52:17.619Z,21.10
2018-08-28T03:53:21.897Z,21.10
2018-08-28T03:54:25.972Z,21.10
2018-08-28T03:55:30.409Z,21.10
2018-08-28T03:56:34.444Z,21.00
2018-08-28T03:57:38.464Z,21.00
2018-08-28T03:58:42.796Z,21.00
2018-08-28T03:59:47.091Z,21.00
2018-08-28T04:00:51.138Z,21.00
2018-08-28T04:01:55.409Z,21.00
2018-08-28T04:02:59.588Z,21.00
2018-08-28T04:04:03.655Z,20.90
2018-08-28T04:05:08.143Z,20.90
2018-08-28T04:06:13.004Z,20.90
2018-08-28T04:07:17.144Z,20.90
2018-08-28T04:08:21.594Z,20.90
2018-08-28T04:09:25.665Z,20.90
2018-08-28T04:10:29.718Z,20.90
2018-08-28T04:11:33.934Z,20.90
2018-08-28T04:12:38.072Z,20.90
2018-08-28T04:13:42.190Z,20.80
2018-08-28T04:14:46.624Z,20.90
2018-08-28T04:15:50.714Z,20.80
2018-08-28T04:16:54.820Z,20.80
2018-08-28T04:17:58.834Z,20.80
2018-08-28T04:19:03.233Z,20.80
2018-08-28T04:20:07.304Z,20.80
2018-08-28T04:21:11.806Z,20.80
2018-08-28T04:22:15.857Z,20.80
2018-08-28T04:23:19.923Z,20.70
2018-08-28T04:24:23.959Z,20.70
2018-08-28T04:25:28.164Z,20.70
2018-08-28T04:26:32.196Z,20.70
2018-08-28T04:27:36.271Z,20.70
2018-08-28T04:28:40.377Z,20.70
2018-08-28T04:29:44.436Z,20.70
2018-08-28T04:30:48.488Z,20.70
2018-08-28T04:31:52.518Z,20.60
2018-08-28T04:32:56.595Z,20.60
2018-08-28T04:34:00.664Z,20.60
2018-08-28T04:35:04.969Z,20.60
2018-08-28T04:36:09.028Z,20.60
2018-08-28T04:37:13.479Z,20.60
2018-08-28T04:38:17.528Z,20.60
2018-08-28T04:39:21.595Z,20.50
2018-08-28T04:40:25.631Z,20.50
2018-08-28T04:41:29.692Z,20.50
2018-08-28T04:42:33.724Z,20.50
2018-08-28T04:43:37.772Z,20.50
2018-08-28T04:44:41.818Z,20.50
2018-08-28T04:45:45.866Z,20.50
2018-08-28T04:46:49.871Z,20.50
2018-08-28T04:47:53.931Z,20.50
2018-08-28T04:48:58.054Z,20.50
2018-08-28T04:50:02.080Z,20.60
2018-08-28T04:51:06.312Z,20.50
2018-08-28T04:52:13.499Z,20.50
2018-08-28T04:53:17.605Z,20.60
2018-08-28T04:54:22.025Z,20.60
2018-08-28T04:55:26.047Z,20.60
2018-08-28T04:56:30.086Z,20.60
2018-08-28T04:57:34.643Z,20.60
2018-08-28T04:58:38.714Z,20.60
2018-08-28T04:59:43.152Z,20.60
2018-08-28T05:00:47.544Z,20.60
2018-08-28T05:01:51.600Z,20.60
2018-08-28T05:02:55.639Z,20.60
2018-08-28T05:03:59.717Z,20.60
2018-08-28T05:05:05.214Z,20.70
2018-08-28T05:06:09.385Z,20.70
2018-08-28T05:07:13.442Z,20.70
2018-08-28T05:08:17.489Z,20.70
2018-08-28T05:09:22.405Z,20.70
2018-08-28T05:10:26.495Z,20.70
2018-08-28T05:11:30.569Z,20.70
2018-08-28T05:12:34.663Z,20.70
2018-08-28T05:13:38.696Z,20.70
2018-08-28T05:14:42.756Z,20.70
2018-08-28T05:15:46.805Z,20.80
2018-08-28T05:16:50.879Z,20.80
2018-08-28T05:17:54.915Z,20.80
2018-08-28T05:18:59.010Z,20.80
2018-08-28T05:20:03.136Z,20.80
2018-08-28T05:21:07.145Z,20.90
2018-08-28T05:22:11.177Z,20.80
2018-08-28T05:23:15.250Z,20.80
2018-08-28T05:24:19.268Z,20.90
2018-08-28T05:25:23.337Z,20.90
2018-08-28T05:26:27.424Z,20.90
2018-08-28T05:27:31.442Z,20.90
2018-08-28T05:28:35.465Z,20.90
2018-08-28T05:29:39.783Z,20.90
2018-08-28T05:30:43.885Z,21.00
2018-08-28T05:31:47.887Z,21.00
2018-08-28T05:32:51.914Z,21.00
2018-08-28T05:33:55.957Z,21.00
2018-08-28T05:35:00.005Z,21.00
2018-08-28T05:36:04.116Z,21.10
2018-08-28T05:37:08.303Z,21.10
2018-08-28T05:38:12.376Z,21.10
2018-08-28T05:39:16.410Z,21.10
2018-08-28T05:40:20.448Z,21.10
2018-08-28T05:41:24.615Z,21.20
2018-08-28T05:42:28.675Z,21.20
2018-08-28T05:43:32.675Z,21.20
2018-08-28T05:44:36.913Z,21.20
2018-08-28T05:45:40.968Z,21.30
2018-08-28T05:46:45.231Z,21.30
2018-08-28T05:47:49.359Z,21.30
2018-08-28T05:48:53.580Z,21.30
2018-08-28T05:49:57.962Z,21.30
2018-08-28T05:51:02.258Z,21.30
2018-08-28T05:52:06.333Z,21.40
2018-08-28T05:53:10.411Z,21.40
2018-08-28T05:54:14.527Z,21.40
2018-08-28T05:55:18.656Z,21.40
2018-08-28T05:56:22.740Z,21.40
2018-08-28T05:57:27.075Z,21.50
2018-08-28T05:58:31.192Z,21.50
2018-08-28T05:59:35.248Z,21.50
2018-08-28T06:00:39.390Z,21.50
2018-08-28T06:01:43.501Z,21.60
2018-08-28T06:02:47.593Z,21.60
2018-08-28T06:03:51.711Z,21.60
2018-08-28T06:04:55.734Z,21.60
2018-08-28T06:05:59.902Z,21.70
2018-08-28T06:07:04.082Z,21.70
2018-08-28T06:08:08.494Z,21.70
2018-08-28T06:09:12.744Z,21.70
2018-08-28T06:10:16.854Z,21.80
2018-08-28T06:11:21.311Z,21.80
2018-08-28T06:12:25.372Z,21.80
2018-08-28T06:13:29.466Z,21.90
2018-08-28T06:14:33.606Z,21.90
2018-08-28T06:15:37.662Z,21.90
2018-08-28T06:16:41.794Z,21.90
2018-08-28T06:17:45.915Z,22.00
2018-08-28T06:18:50.060Z,22.00
2018-08-28T06:19:54.091Z,22.10
2018-08-28T06:20:58.135Z,22.10
2018-08-28T06:22:02.517Z,22.10
2018-08-28T06:23:06.585Z,22.20
2018-08-28T06:24:10.636Z,22.20
2018-08-28T06:25:14.698Z,22.20
2018-08-28T06:26:19.034Z,22.20
2018-08-28T06:27:23.132Z,22.30
2018-08-28T06:28:27.194Z,22.30
2018-08-28T06:29:31.202Z,22.30
2018-08-28T06:30:35.427Z,22.40
2018-08-28T06:31:39.446Z,22.40
2018-08-28T06:32:43.525Z,22.40
2018-08-28T06:33:47.569Z,22.50
2018-08-28T06:34:51.582Z,22.50
2018-08-28T06:35:55.672Z,22.50
2018-08-28T06:36:59.774Z,22.60
2018-08-28T06:38:04.026Z,22.60
2018-08-28T06:39:08.834Z,22.60
2018-08-28T06:40:12.872Z,22.70
2018-08-28T06:41:17.395Z,22.70
2018-08-28T06:42:21.446Z,22.80
2018-08-28T06:43:25.842Z,22.80
2018-08-28T06:44:29.835Z,22.80
2018-08-28T06:45:33.934Z,22.90
2018-08-28T06:46:38.388Z,22.90
2018-08-28T06:47:42.453Z,22.90
2018-08-28T06:48:46.544Z,23.00
2018-08-28T06:49:50.654Z,23.00
2018-08-28T06:50:54.702Z,23.00
2018-08-28T06:51:58.731Z,23.10
2018-08-28T06:53:02.775Z,23.20
2018-08-28T06:54:06.835Z,23.20
2018-08-28T06:55:10.885Z,23.20
2018-08-28T06:56:14.941Z,23.30
2018-08-28T06:57:18.983Z,23.30
2018-08-28T06:58:23.085Z,23.30
2018-08-28T06:59:27.634Z,23.40
2018-08-28T07:00:31.694Z,23.40
2018-08-28T07:01:35.889Z,23.50
2018-08-28T07:02:40.039Z,23.50
2018-08-28T07:03:44.083Z,23.50
2018-08-28T07:04:48.195Z,23.60
2018-08-28T07:05:52.256Z,23.60
2018-08-28T07:06:56.377Z,23.60
2018-08-28T07:08:00.451Z,23.70
2018-08-28T07:09:05.881Z,23.70
2018-08-28T07:10:10.027Z,23.70
2018-08-28T07:11:14.042Z,23.60
2018-08-28T07:12:18.246Z,23.70
2018-08-28T07:13:22.300Z,23.80
2018-08-28T07:14:26.427Z,23.80
2018-08-28T07:15:30.546Z,23.80
2018-08-28T07:16:34.635Z,23.80
2018-08-28T07:17:38.815Z,23.80
2018-08-28T07:18:42.915Z,23.80
2018-08-28T07:19:47.230Z,23.90
2018-08-28T07:20:52.273Z,23.90
2018-08-28T07:21:56.574Z,23.90
2018-08-28T07:23:00.675Z,23.90
2018-08-28T07:24:04.837Z,24.00
2018-08-28T07:25:08.880Z,24.00
2018-08-28T07:26:12.970Z,24.00
2018-08-28T07:27:17.026Z,24.00
2018-08-28T07:28:21.055Z,24.00
2018-08-28T07:29:25.177Z,24.10
2018-08-28T07:30:29.428Z,24.10
2018-08-28T07:31:33.544Z,24.10
2018-08-28T07:32:37.683Z,24.10
2018-08-28T07:33:41.895Z,24.20
2018-08-28T07:34:46.024Z,24.20
2018-08-28T07:35:50.228Z,24.30
2018-08-28T07:36:54.706Z,24.30
2018-08-28T07:37:58.778Z,24.30
2018-08-28T07:39:02.937Z,24.40
2018-08-28T07:40:06.999Z,24.40
2018-08-28T07:41:11.053Z,24.40
2018-08-28T07:42:15.089Z,24.50
2018-08-28T07:43:19.132Z,24.50
2018-08-28T07:44:23.969Z,24.60
2018-08-28T07:45:27.975Z,24.60
2018-08-28T07:46:32.076Z,24.70
2018-08-28T07:47:36.586Z,24.70
2018-08-28T07:48:40.675Z,24.80
2018-08-28T07:49:44.892Z,24.80
2018-08-28T07:50:49.057Z,24.80
2018-08-28T07:51:53.097Z,24.90
2018-08-28T07:52:57.162Z,24.90
2018-08-28T07:54:01.599Z,25.00
2018-08-28T07:55:05.837Z,25.00
2018-08-28T07:56:10.190Z,25.00
2018-08-28T07:57:14.983Z,25.10
2018-08-28T07:58:19.230Z,25.10
2018-08-28T07:59:23.727Z,25.10
2018-08-28T08:00:28.008Z,25.20
2018-08-28T08:01:32.399Z,25.20
2018-08-28T08:02:36.371Z,25.20
2018-08-28T08:03:40.397Z,25.30
2018-08-28T08:04:44.533Z,25.30
2018-08-28T08:05:48.551Z,25.40
2018-08-28T08:06:52.651Z,25.40
2018-08-28T08:07:56.702Z,25.40
2018-08-28T08:09:00.830Z,25.50
2018-08-28T08:10:05.447Z,25.50
2018-08-28T08:11:09.487Z,25.60
2018-08-28T08:12:13.492Z,25.60
2018-08-28T08:13:17.601Z,25.60
2018-08-28T08:14:21.856Z,25.70
2018-08-28T08:15:25.942Z,25.80
2018-08-28T08:16:29.996Z,25.80
2018-08-28T08:17:34.347Z,25.80
2018-08-28T08:18:38.392Z,25.90
2018-08-28T08:19:42.472Z,25.90
2018-08-28T08:20:46.521Z,26.00
2018-08-28T08:21:50.641Z,26.00
2018-08-28T08:22:55.004Z,26.10
2018-08-28T08:23:59.120Z,26.10
2018-08-28T08:25:03.197Z,26.10
2018-08-28T08:26:07.245Z,26.20
2018-08-28T08:27:11.337Z,26.30
2018-08-28T08:28:15.521Z,26.30
2018-08-28T08:29:19.722Z,26.40
2018-08-28T08:30:23.859Z,26.40
2018-08-28T08:31:27.940Z,26.50
2018-08-28T08:32:32.149Z,26.50
2018-08-28T08:33:36.299Z,26.60
2018-08-28T08:34:40.504Z,26.70
2018-08-28T08:35:44.583Z,26.80
2018-08-28T08:36:49.003Z,26.90
2018-08-28T08:37:53.033Z,26.90
2018-08-28T08:38:57.126Z,27.00
2018-08-28T08:40:01.449Z,27.10
2018-08-28T08:41:05.758Z,27.10
2018-08-28T08:42:10.111Z,27.20
2018-08-28T08:43:14.088Z,27.30
2018-08-28T08:44:18.215Z,27.30
2018-08-28T08:45:22.637Z,27.40
2018-08-28T08:46:26.759Z,27.50
2018-08-28T08:47:30.797Z,27.60
2018-08-28T08:48:34.848Z,27.60
2018-08-28T08:49:38.935Z,27.70
2018-08-28T08:50:43.043Z,27.80
2018-08-28T08:51:47.096Z,27.90
2018-08-28T08:52:51.204Z,27.90
2018-08-28T08:53:55.344Z,28.00
2018-08-28T08:54:59.427Z,28.10
2018-08-28T08:56:03.522Z,28.10
2018-08-28T08:57:07.582Z,28.20
2018-08-28T08:58:11.582Z,28.20
2018-08-28T08:59:15.634Z,28.30
2018-08-28T09:00:19.675Z,28.30
2018-08-28T09:01:23.770Z,28.40
2018-08-28T09:02:27.863Z,28.40
2018-08-28T09:03:32.416Z,28.50
2018-08-28T09:04:36.613Z,28.50
2018-08-28T09:05:40.886Z,28.60
2018-08-28T09:06:44.974Z,28.60
2018-08-28T09:07:49.431Z,28.60
2018-08-28T09:08:53.558Z,28.70
2018-08-28T09:09:57.842Z,28.70
2018-08-28T09:11:01.896Z,28.80
2018-08-28T09:12:06.082Z,28.80
2018-08-28T09:13:10.437Z,28.90
2018-08-28T09:14:15.279Z,28.90
2018-08-28T09:15:19.691Z,29.00
2018-08-28T09:16:23.731Z,29.10
2018-08-28T09:17:27.808Z,29.10
2018-08-28T09:18:31.867Z,29.20
2018-08-28T09:19:36.000Z,29.30
2018-08-28T09:20:40.062Z,29.30
2018-08-28T09:21:44.108Z,29.40
2018-08-28T09:22:48.139Z,29.50
2018-08-28T09:23:52.204Z,29.60
2018-08-28T09:24:56.208Z,29.70
2018-08-28T09:26:00.372Z,29.80
2018-08-28T09:27:04.475Z,29.90
2018-08-28T09:28:08.517Z,30.00
2018-08-28T09:29:12.568Z,30.10
2018-08-28T09:30:16.725Z,30.20
2018-08-28T09:31:20.877Z,30.30
2018-08-28T09:32:25.133Z,30.40
2018-08-28T09:33:29.083Z,30.50
2018-08-28T09:34:33.085Z,30.70
2018-08-28T09:35:37.230Z,30.80
2018-08-28T09:36:41.444Z,31.00
2018-08-28T09:37:45.531Z,31.10
2018-08-28T09:38:49.704Z,31.30
2018-08-28T09:39:53.959Z,31.50
2018-08-28T09:40:57.938Z,31.70
2018-08-28T09:42:02.000Z,31.80
2018-08-28T09:43:06.162Z,32.10
2018-08-28T09:44:10.604Z,32.30
2018-08-28T09:45:14.650Z,32.50
2018-08-28T09:46:18.693Z,32.70
2018-08-28T09:47:23.096Z,32.90
2018-08-28T09:48:27.260Z,33.10
2018-08-28T09:49:31.578Z,33.30
2018-08-28T09:50:35.699Z,33.40
2018-08-28T09:51:39.712Z,33.60
2018-08-28T09:52:43.748Z,33.70
2018-08-28T09:53:47.818Z,33.90
2018-08-28T09:54:52.155Z,34.00
2018-08-28T09:55:56.184Z,34.20
2018-08-28T09:57:00.257Z,34.30
2018-08-28T09:58:04.279Z,34.40
2018-08-28T09:59:08.386Z,34.50
2018-08-28T10:00:17.882Z,34.60
2018-08-28T10:01:27.227Z,34.60
2018-08-28T10:02:31.317Z,34.70
2018-08-28T10:03:35.670Z,34.70
2018-08-28T10:04:39.762Z,34.70
2018-08-28T10:05:43.905Z,34.80
2018-08-28T10:06:47.908Z,34.90
2018-08-28T10:07:52.023Z,34.90
2018-08-28T10:08:56.040Z,35.00
2018-08-28T10:10:00.075Z,35.10
2018-08-28T10:11:04.248Z,35.20
2018-08-28T10:12:08.204Z,35.20
2018-08-28T10:13:12.520Z,35.40
2018-08-28T10:14:16.623Z,35.50
2018-08-28T10:15:20.657Z,35.60
2018-08-28T10:16:24.926Z,35.80
2018-08-28T10:17:29.050Z,35.90
2018-08-28T10:18:33.040Z,36.00
2018-08-28T10:19:37.383Z,36.10
2018-08-28T10:20:41.478Z,36.30
2018-08-28T10:21:45.773Z,36.50
2018-08-28T10:22:50.251Z,36.60
2018-08-28T10:23:54.271Z,36.70
2018-08-28T10:24:58.503Z,36.90
2018-08-28T10:26:02.881Z,37.00
2018-08-28T10:27:07.018Z,37.10
2018-08-28T10:28:11.044Z,37.20
2018-08-28T10:29:15.506Z,37.30
2018-08-28T10:30:19.710Z,37.40
2018-08-28T10:31:23.912Z,37.40
2018-08-28T10:32:28.428Z,37.40
2018-08-28T10:33:32.513Z,37.50
2018-08-28T10:34:36.661Z,37.50
2018-08-28T10:35:40.966Z,37.40
2018-08-28T10:36:45.119Z,37.40
2018-08-28T10:37:49.262Z,37.40
2018-08-28T10:38:53.558Z,37.40
2018-08-28T10:39:57.746Z,37.40
2018-08-28T10:41:01.964Z,37.40
2018-08-28T10:42:06.391Z,37.40
2018-08-28T10:43:10.492Z,37.40
2018-08-28T10:44:21.112Z,37.50
2018-08-28T10:45:25.355Z,37.50
2018-08-28T10:46:29.884Z,37.50
2018-08-28T10:47:33.904Z,37.50
2018-08-28T10:48:38.025Z,37.50
2018-08-28T10:49:42.499Z,37.40
2018-08-28T10:50:46.812Z,37.40
2018-08-28T10:51:50.881Z,37.30
2018-08-28T10:52:55.220Z,37.30
2018-08-28T10:53:59.385Z,37.20
2018-08-28T10:55:03.715Z,37.10
2018-08-28T10:56:07.978Z,37.00
2018-08-28T10:57:12.152Z,36.90
2018-08-28T10:58:16.244Z,36.80
2018-08-28T10:59:20.714Z,36.70
2018-08-28T11:00:25.260Z,36.60
2018-08-28T11:01:29.420Z,36.50
2018-08-28T11:02:33.808Z,36.40
2018-08-28T11:03:37.926Z,36.30
2018-08-28T11:04:42.123Z,36.10
2018-08-28T11:05:46.278Z,35.90
2018-08-28T11:06:50.780Z,35.80
2018-08-28T11:07:54.970Z,35.60
2018-08-28T11:08:59.161Z,35.50
2018-08-28T11:10:03.449Z,35.30
2018-08-28T11:11:07.569Z,35.20
2018-08-28T11:12:11.676Z,35.10
2018-08-28T11:13:15.784Z,35.10
2018-08-28T11:14:19.959Z,35.00
2018-08-28T11:15:24.106Z,35.00
2018-08-28T11:16:28.333Z,35.00
2018-08-28T11:17:32.620Z,35.00
2018-08-28T11:18:36.663Z,35.10
2018-08-28T11:19:41.167Z,35.20
2018-08-28T11:20:45.286Z,35.30
2018-08-28T11:21:49.350Z,35.30
2018-08-28T11:22:53.962Z,35.50
2018-08-28T11:23:58.042Z,35.60
2018-08-28T11:25:02.208Z,35.70
2018-08-28T11:26:06.572Z,35.80
2018-08-28T11:27:10.753Z,35.90
2018-08-28T11:28:15.251Z,36.10
2018-08-28T11:29:19.376Z,36.20
2018-08-28T11:30:23.537Z,36.30
2018-08-28T11:31:27.729Z,36.40
2018-08-28T11:32:31.760Z,36.50
2018-08-28T11:33:35.867Z,36.50
2018-08-28T11:34:40.014Z,36.60
2018-08-28T11:35:44.136Z,36.70
2018-08-28T11:36:48.347Z,36.80
2018-08-28T11:37:52.429Z,37.00
2018-08-28T11:38:56.562Z,37.10
2018-08-28T11:40:00.882Z,37.20
2018-08-28T11:41:05.084Z,37.30
2018-08-28T11:42:09.169Z,37.50
2018-08-28T11:43:13.335Z,37.60
2018-08-28T11:44:17.577Z,37.70
2018-08-28T11:45:21.690Z,37.80
2018-08-28T11:47:29.552Z,38.10
2018-08-28T11:48:34.481Z,38.20
2018-08-28T11:49:38.558Z,38.40
2018-08-28T11:50:42.636Z,38.50
2018-08-28T11:51:46.826Z,38.60
2018-08-28T11:52:50.984Z,38.80
2018-08-28T11:53:55.072Z,38.90
2018-08-28T11:54:59.223Z,39.00
2018-08-28T11:56:03.466Z,39.10
2018-08-28T11:57:07.611Z,39.20
2018-08-28T11:58:12.178Z,39.40
2018-08-28T11:59:16.256Z,39.50
2018-08-28T12:00:20.372Z,39.60
2018-08-28T12:01:24.969Z,39.70
2018-08-28T12:02:29.278Z,39.70
2018-08-28T12:03:33.356Z,39.80
2018-08-28T12:04:37.703Z,39.80
2018-08-28T12:05:43.763Z,39.90
2018-08-28T12:06:47.899Z,39.90
2018-08-28T12:07:52.258Z,39.90
2018-08-28T12:08:57.163Z,40.00
2018-08-28T12:10:01.298Z,40.00
2018-08-28T12:11:05.435Z,40.00
2018-08-28T12:12:09.557Z,40.00
2018-08-28T12:13:13.842Z,39.90
2018-08-28T12:14:17.793Z,39.90
2018-08-28T12:15:21.996Z,39.80
2018-08-28T12:16:26.048Z,39.70
2018-08-28T12:17:30.304Z,39.60
2018-08-28T12:18:34.539Z,39.50
2018-08-28T12:19:38.672Z,39.40
2018-08-28T12:20:42.921Z,39.30
2018-08-28T12:21:46.976Z,39.30
2018-08-28T12:22:54.081Z,39.30
2018-08-28T12:23:58.185Z,39.30
2018-08-28T12:25:02.357Z,39.30
2018-08-28T12:26:06.558Z,39.30
2018-08-28T12:27:10.714Z,39.40
2018-08-28T12:28:14.889Z,39.50
2018-08-28T12:29:19.151Z,39.60
2018-08-28T12:30:23.240Z,39.60
2018-08-28T12:31:27.457Z,39.70
2018-08-28T12:32:31.838Z,39.80
2018-08-28T12:33:35.952Z,39.90
2018-08-28T12:34:41.159Z,40.00
2018-08-28T12:35:45.290Z,40.10
2018-08-28T12:36:49.629Z,40.20
2018-08-28T12:37:53.807Z,40.30
2018-08-28T12:38:58.159Z,40.40
2018-08-28T12:40:02.267Z,40.50
2018-08-28T12:41:06.514Z,40.50
2018-08-28T12:42:10.612Z,40.60
2018-08-28T12:43:14.734Z,40.80
2018-08-28T12:44:18.825Z,40.80
2018-08-28T12:45:22.950Z,40.90
2018-08-28T12:46:27.021Z,40.90
2018-08-28T12:47:31.241Z,41.00
2018-08-28T12:48:35.302Z,41.10
2018-08-28T12:49:39.411Z,41.10
2018-08-28T12:50:43.527Z,41.20
2018-08-28T12:51:47.694Z,41.30
2018-08-28T12:52:51.977Z,41.30
2018-08-28T12:53:56.137Z,41.40
2018-08-28T12:55:00.334Z,41.40
2018-08-28T12:56:04.338Z,41.40
2018-08-28T12:57:08.484Z,41.50
2018-08-28T12:58:12.500Z,41.60
2018-08-28T12:59:16.885Z,41.60
2018-08-28T13:00:21.022Z,41.70
2018-08-28T13:01:25.063Z,41.80
2018-08-28T13:02:29.361Z,41.90
2018-08-28T13:03:33.324Z,42.00
2018-08-28T13:04:37.450Z,42.00
2018-08-28T13:05:41.704Z,42.00
2018-08-28T13:06:45.808Z,42.00
2018-08-28T13:07:50.115Z,42.00
2018-08-28T13:08:56.887Z,42.00
2018-08-28T13:10:01.101Z,42.00
2018-08-28T13:11:05.351Z,41.90
2018-08-28T13:12:09.914Z,41.90
2018-08-28T13:13:13.977Z,41.80
2018-08-28T13:14:18.113Z,41.70
2018-08-28T13:15:22.493Z,41.60
2018-08-28T13:16:26.692Z,41.50
2018-08-28T13:17:30.790Z,41.30
2018-08-28T13:18:35.363Z,41.10
2018-08-28T13:19:39.585Z,41.00
2018-08-28T13:20:43.827Z,40.80
2018-08-28T13:21:48.241Z,40.70
2018-08-28T13:22:52.341Z,40.50
2018-08-28T13:23:56.922Z,40.30
2018-08-28T13:25:00.976Z,40.10
2018-08-28T13:26:05.381Z,39.90
2018-08-28T13:27:09.347Z,39.60
2018-08-28T13:28:14.350Z,39.50
2018-08-28T13:29:18.625Z,39.20
2018-08-28T13:30:22.769Z,39.00
2018-08-28T13:31:26.839Z,38.80
2018-08-28T13:32:30.975Z,38.60
2018-08-28T13:33:35.365Z,38.40
2018-08-28T13:34:39.553Z,38.20
2018-08-28T13:35:43.697Z,38.00
2018-08-28T13:36:47.872Z,37.80
2018-08-28T13:37:52.477Z,37.60
2018-08-28T13:38:56.860Z,37.40
2018-08-28T13:40:00.984Z,37.20
2018-08-28T13:41:05.324Z,37.00
2018-08-28T13:42:09.376Z,36.80
2018-08-28T13:43:14.348Z,36.70
2018-08-28T13:44:18.695Z,36.70
2018-08-28T13:45:22.837Z,36.60
2018-08-28T13:46:27.256Z,36.60
2018-08-28T13:47:31.552Z,36.60
2018-08-28T13:48:35.671Z,36.60
2018-08-28T13:49:39.890Z,36.70